Time;durP1;ratioP1;P1;durP2;ratioP2;P2;SDS_P1;SDS_P2;PMS_P1;PMS_P2;Temp;Humidity;BMP_temperature;BMP_pressure;BME280_temperature;BME280_humidity;BME280_pressure;Samples;Min_cycle;Max_cycle;Signal;HPM_P1;HPM_P2
2023/12/09 00:01:26;;;;;;;130.80;40.40;;;7.40;99.90;;;;;;5094378;28;20079;-76
2023/12/09 00:03:52;;;;;;;126.07;39.50;;;7.40;99.90;;;;;;5095356;28;20387;-76
2023/12/09 00:06:21;;;;;;;115.77;38.33;;;7.40;99.90;;;;;;5095292;28;20047;-76
2023/12/09 00:08:47;;;;;;;129.63;40.77;;;7.40;99.90;;;;;;5095294;28;20040;-76
2023/12/09 00:11:13;;;;;;;114.90;36.20;;;7.50;99.90;;;;;;5095191;28;20281;-77
2023/12/09 00:13:38;;;;;;;118.67;37.03;;;7.40;99.90;;;;;;5095562;28;20036;-76
2023/12/09 00:16:05;;;;;;;110.03;37.83;;;7.50;99.90;;;;;;5094053;28;20131;-76
2023/12/09 00:18:30;;;;;;;127.57;38.70;;;7.40;99.90;;;;;;5094955;28;20052;-76
2023/12/09 00:20:56;;;;;;;122.87;38.13;;;7.40;99.90;;;;;;5095280;28;20684;-76
2023/12/09 00:23:22;;;;;;;113.30;37.20;;;7.50;99.90;;;;;;5094704;28;20044;-76
2023/12/09 00:25:48;;;;;;;125.63;38.70;;;7.50;99.90;;;;;;5095189;28;20399;-76
2023/12/09 00:28:14;;;;;;;130.07;37.90;;;7.50;99.90;;;;;;5093467;28;20395;-76
2023/12/09 00:30:39;;;;;;;133.90;38.90;;;7.50;99.90;;;;;;5095102;28;20043;-76
2023/12/09 00:33:05;;;;;;;104.10;36.70;;;7.50;99.90;;;;;;5094858;28;20051;-76
2023/12/09 00:35:31;;;;;;;104.73;37.87;;;7.40;99.90;;;;;;5093428;28;20063;-76
2023/12/09 00:37:56;;;;;;;107.90;37.90;;;7.50;99.90;;;;;;5094784;28;20177;-76
2023/12/09 00:40:22;;;;;;;111.87;36.43;;;7.40;99.90;;;;;;5094527;28;20146;-76
2023/12/09 00:42:48;;;;;;;113.90;37.80;;;7.50;99.90;;;;;;5094188;28;20492;-76
2023/12/09 00:45:14;;;;;;;109.63;38.83;;;7.50;99.90;;;;;;5094615;28;20137;-76
2023/12/09 00:47:40;;;;;;;120.90;35.37;;;7.50;99.90;;;;;;5093073;28;20048;-76
2023/12/09 00:50:07;;;;;;;92.87;35.63;;;7.40;99.90;;;;;;5093681;28;20282;-76
2023/12/09 00:52:32;;;;;;;99.07;33.40;;;7.50;99.90;;;;;;5092287;28;20040;-76
2023/12/09 00:55:02;;;;;;;112.67;36.60;;;7.50;99.90;;;;;;5092194;28;20274;-76
2023/12/09 00:57:27;;;;;;;104.37;36.37;;;7.40;99.90;;;;;;5092108;28;20108;-76
2023/12/09 00:59:53;;;;;;;98.37;32.47;;;7.50;99.90;;;;;;5092039;28;20660;-76
2023/12/09 01:02:19;;;;;;;104.93;34.37;;;7.50;99.90;;;;;;5092367;28;20051;-77
2023/12/09 01:04:45;;;;;;;105.17;34.57;;;7.50;99.90;;;;;;5092432;28;20048;-76
2023/12/09 01:07:11;;;;;;;100.50;33.63;;;7.40;99.90;;;;;;5093417;28;20048;-76
2023/12/09 01:09:37;;;;;;;102.57;35.50;;;7.50;99.90;;;;;;5094048;28;20274;-76
2023/12/09 01:12:03;;;;;;;102.73;34.80;;;7.50;99.90;;;;;;5094188;28;20131;-76
2023/12/09 01:14:28;;;;;;;89.73;32.33;;;7.50;99.90;;;;;;5093944;28;20048;-76
2023/12/09 01:16:54;;;;;;;106.60;34.70;;;7.40;99.90;;;;;;5094022;28;20040;-76
2023/12/09 01:19:20;;;;;;;105.03;33.13;;;7.50;99.90;;;;;;5076372;28;20131;-76
2023/12/09 01:21:45;;;;;;;95.90;34.17;;;7.50;99.90;;;;;;5094035;28;20044;-76
2023/12/09 01:24:11;;;;;;;94.90;31.60;;;7.50;99.90;;;;;;5093873;28;20373;-76
2023/12/09 01:26:37;;;;;;;77.50;29.47;;;7.50;99.90;;;;;;5093760;28;20040;-76
2023/12/09 01:29:03;;;;;;;83.50;29.83;;;7.50;99.90;;;;;;5093857;28;20451;-76
2023/12/09 01:31:30;;;;;;;85.90;30.20;;;7.60;99.90;;;;;;5093578;28;20043;-76
2023/12/09 01:33:56;;;;;;;79.83;30.27;;;7.50;99.90;;;;;;5093730;28;20274;-76
2023/12/09 01:36:21;;;;;;;101.27;30.47;;;7.50;99.90;;;;;;5093464;28;20278;-76
2023/12/09 01:38:47;;;;;;;80.33;28.43;;;7.50;99.90;;;;;;5093507;28;20050;-76
2023/12/09 01:41:13;;;;;;;86.73;29.43;;;7.50;99.90;;;;;;5092460;28;20400;-76
2023/12/09 01:43:39;;;;;;;101.10;31.57;;;7.50;99.90;;;;;;5093369;28;20412;-76
2023/12/09 01:46:11;;;;;;;88.53;29.60;;;7.50;99.90;;;;;;5076082;28;20056;-76
2023/12/09 01:48:38;;;;;;;82.57;28.97;;;7.50;99.90;;;;;;5093451;28;20044;-76
2023/12/09 01:51:08;;;;;;;74.93;28.57;;;7.40;99.90;;;;;;5093845;28;20285;-76
2023/12/09 01:53:36;;;;;;;87.50;30.73;;;7.40;99.90;;;;;;5093135;28;20274;-76
2023/12/09 01:56:05;;;;;;;88.63;28.40;;;7.40;99.90;;;;;;5093702;28;20558;-76
2023/12/09 01:58:32;;;;;;;80.07;29.43;;;7.30;99.90;;;;;;5093206;28;20684;-76
2023/12/09 02:00:57;;;;;;;84.03;30.17;;;7.40;99.90;;;;;;5093338;28;20361;-76
2023/12/09 02:03:23;;;;;;;66.93;25.60;;;7.40;99.90;;;;;;5093308;28;20713;-76
2023/12/09 02:05:49;;;;;;;82.00;28.73;;;7.40;99.90;;;;;;5092682;28;20047;-76
2023/12/09 02:08:15;;;;;;;96.17;30.23;;;7.40;99.90;;;;;;5093331;28;20044;-76
2023/12/09 02:10:42;;;;;;;84.43;30.67;;;7.40;99.90;;;;;;5093165;28;20282;-76
2023/12/09 02:13:15;;;;;;;82.80;29.00;;;7.40;99.90;;;;;;5093145;28;20292;-76
2023/12/09 02:15:47;;;;;;;74.00;28.40;;;7.50;99.90;;;;;;5093424;28;20284;-76
2023/12/09 02:18:12;;;;;;;81.17;29.30;;;7.40;99.90;;;;;;5093317;28;20274;-76
2023/12/09 02:20:38;;;;;;;84.17;30.13;;;7.40;99.90;;;;;;5092115;28;20344;-76
2023/12/09 02:23:11;;;;;;;70.93;28.03;;;7.40;99.90;;;;;;5092318;28;20048;-76
2023/12/09 02:25:38;;;;;;;89.20;28.47;;;7.40;99.90;;;;;;5092997;28;20522;-76
2023/12/09 02:28:16;;;;;;;97.60;31.33;;;7.40;99.90;;;;;;5093022;28;20626;-76
2023/12/09 02:30:59;;;;;;;75.20;29.23;;;7.40;99.90;;;;;;5092934;28;20642;-76
2023/12/09 02:33:26;;;;;;;66.90;28.10;;;7.40;99.90;;;;;;5093321;28;20278;-76
2023/12/09 02:35:54;;;;;;;80.93;29.63;;;7.40;99.90;;;;;;5092890;28;20773;-76
2023/12/09 02:38:21;;;;;;;86.90;30.23;;;7.40;99.90;;;;;;5075272;28;20286;-76
2023/12/09 02:40:47;;;;;;;81.83;28.77;;;7.40;99.90;;;;;;5092855;28;20305;-76
2023/12/09 02:43:13;;;;;;;76.07;28.60;;;7.40;99.90;;;;;;5092795;28;20308;-76
2023/12/09 02:45:39;;;;;;;83.23;27.13;;;7.40;99.90;;;;;;5092485;28;20286;-76
2023/12/09 02:48:05;;;;;;;74.30;27.07;;;7.30;99.90;;;;;;5092804;28;20350;-76
2023/12/09 02:50:31;;;;;;;85.57;28.47;;;7.40;99.90;;;;;;5074699;28;20051;-76
2023/12/09 02:52:57;;;;;;;88.70;29.20;;;7.40;99.90;;;;;;5089681;28;20686;-76
2023/12/09 02:55:23;;;;;;;74.43;29.17;;;7.40;99.90;;;;;;5090856;28;20050;-76
2023/12/09 02:57:48;;;;;;;74.50;27.80;;;7.30;99.90;;;;;;5090725;28;20491;-76
2023/12/09 03:00:14;;;;;;;76.20;30.23;;;7.30;99.90;;;;;;5089738;28;20077;-76
2023/12/09 03:02:40;;;;;;;75.33;27.30;;;7.30;99.90;;;;;;5090858;28;20036;-76
2023/12/09 03:05:06;;;;;;;77.63;28.23;;;7.40;99.90;;;;;;5091071;28;20278;-76
2023/12/09 03:07:32;;;;;;;75.87;27.83;;;7.30;99.90;;;;;;5091982;28;20052;-76
2023/12/09 03:09:57;;;;;;;73.67;27.03;;;7.30;99.90;;;;;;5092647;28;20391;-76
2023/12/09 03:12:23;;;;;;;80.77;28.83;;;7.20;99.90;;;;;;5092759;28;20488;-76
2023/12/09 03:14:49;;;;;;;76.07;27.70;;;7.30;99.90;;;;;;5092543;28;20523;-76
2023/12/09 03:17:15;;;;;;;76.87;28.53;;;7.20;99.90;;;;;;5091944;28;20059;-76
2023/12/09 03:19:40;;;;;;;75.97;29.00;;;7.20;99.90;;;;;;5096132;28;20273;-76
2023/12/09 03:22:07;;;;;;;83.07;28.07;;;7.10;99.90;;;;;;5095202;28;20044;-76
2023/12/09 03:24:32;;;;;;;81.50;29.33;;;7.10;99.90;;;;;;5096302;28;20452;-77
2023/12/09 03:26:58;;;;;;;77.87;29.13;;;7.10;99.90;;;;;;5094980;28;20373;-76
2023/12/09 03:29:24;;;;;;;81.70;28.30;;;7.00;99.90;;;;;;5096134;28;20446;-76
2023/12/09 03:31:49;;;;;;;66.47;26.27;;;7.10;99.90;;;;;;5095777;28;20048;-76
2023/12/09 03:34:15;;;;;;;78.17;28.83;;;7.10;99.90;;;;;;5095862;28;20044;-76
2023/12/09 03:36:41;;;;;;;70.13;26.90;;;7.10;99.90;;;;;;5095851;28;20539;-76
2023/12/09 03:39:09;;;;;;;70.27;27.97;;;7.10;99.90;;;;;;5095936;28;20044;-76
2023/12/09 03:41:34;;;;;;;74.27;29.77;;;7.10;99.90;;;;;;5095910;28;20289;-76
2023/12/09 03:44:01;;;;;;;72.00;27.00;;;7.10;99.90;;;;;;5095527;28;20313;-76
2023/12/09 03:46:26;;;;;;;71.07;27.50;;;7.10;99.90;;;;;;5095770;28;20043;-76
2023/12/09 03:48:52;;;;;;;86.47;28.77;;;7.10;99.90;;;;;;5095842;28;20358;-76
2023/12/09 03:51:18;;;;;;;81.13;28.53;;;7.10;99.90;;;;;;5095658;28;20044;-76
2023/12/09 03:53:44;;;;;;;68.80;26.43;;;7.10;99.90;;;;;;5094348;28;20047;-76
2023/12/09 03:56:13;;;;;;;70.67;26.53;;;7.10;99.90;;;;;;5095494;28;20044;-76
2023/12/09 03:58:39;;;;;;;72.13;27.07;;;7.10;99.90;;;;;;5095573;28;20047;-76
2023/12/09 04:01:05;;;;;;;74.30;26.40;;;7.10;99.90;;;;;;5095599;28;20278;-76
2023/12/09 04:03:31;;;;;;;68.57;27.00;;;7.10;99.90;;;;;;5095375;28;20853;-76
2023/12/09 04:05:56;;;;;;;67.80;27.20;;;7.10;99.90;;;;;;5095006;28;20067;-76
2023/12/09 04:08:22;;;;;;;63.60;26.27;;;7.20;99.90;;;;;;5094192;28;20131;-76
2023/12/09 04:10:48;;;;;;;76.83;25.90;;;7.20;99.90;;;;;;5095227;28;20140;-76
2023/12/09 04:13:14;;;;;;;56.97;23.77;;;7.20;99.90;;;;;;5094627;28;20155;-76
2023/12/09 04:15:39;;;;;;;70.53;26.13;;;7.20;99.90;;;;;;5095298;28;20044;-76
2023/12/09 04:18:05;;;;;;;57.83;23.30;;;7.30;99.90;;;;;;5094972;28;20483;-76
2023/12/09 04:20:31;;;;;;;70.40;23.87;;;7.20;99.90;;;;;;5095044;28;20052;-76
2023/12/09 04:22:57;;;;;;;75.40;27.00;;;7.30;99.90;;;;;;5094838;28;20352;-76
2023/12/09 04:25:24;;;;;;;58.50;24.10;;;7.20;99.90;;;;;;5095036;28;20742;-76
2023/12/09 04:27:50;;;;;;;56.50;23.77;;;7.30;99.90;;;;;;5094714;28;20123;-76
2023/12/09 04:30:16;;;;;;;62.50;24.43;;;7.30;99.90;;;;;;5094693;28;20274;-76
2023/12/09 04:32:42;;;;;;;63.70;24.07;;;7.30;99.90;;;;;;5094898;28;20290;-76
2023/12/09 04:35:08;;;;;;;62.67;25.70;;;7.30;99.90;;;;;;5093717;28;20054;-76
2023/12/09 04:37:34;;;;;;;54.70;23.53;;;7.30;99.90;;;;;;5095286;28;20044;-76
2023/12/09 04:40:01;;;;;;;48.30;21.70;;;7.30;99.90;;;;;;5094601;28;20047;-76
2023/12/09 04:42:27;;;;;;;61.70;23.97;;;7.30;99.90;;;;;;5094190;28;20385;-75
2023/12/09 04:44:54;;;;;;;59.40;22.83;;;7.30;99.90;;;;;;5094499;28;20815;-76
2023/12/09 04:47:19;;;;;;;59.97;22.33;;;7.40;99.90;;;;;;5094619;28;20733;-76
2023/12/09 04:49:45;;;;;;;59.60;22.97;;;7.30;99.90;;;;;;5094595;28;20279;-76
2023/12/09 04:52:11;;;;;;;54.83;23.87;;;7.20;99.90;;;;;;5093563;28;20055;-76
2023/12/09 04:54:37;;;;;;;57.07;23.37;;;7.30;99.90;;;;;;5094546;28;20054;-76
2023/12/09 04:57:03;;;;;;;54.60;22.80;;;7.30;99.90;;;;;;5094201;28;20508;-76
2023/12/09 04:59:28;;;;;;;59.43;23.40;;;7.40;99.90;;;;;;5094194;28;20044;-76
2023/12/09 05:01:54;;;;;;;60.93;22.13;;;7.40;99.90;;;;;;5094036;28;20047;-76
2023/12/09 05:04:20;;;;;;;53.70;22.87;;;7.30;99.90;;;;;;5094322;28;20477;-76
2023/12/09 05:06:46;;;;;;;52.27;19.93;;;7.40;99.90;;;;;;5094092;28;20051;-76
2023/12/09 05:09:13;;;;;;;62.17;22.00;;;7.40;99.90;;;;;;5093974;28;20491;-76
2023/12/09 05:11:39;;;;;;;61.97;22.53;;;7.40;99.90;;;;;;5094214;28;20282;-76
2023/12/09 05:14:05;;;;;;;46.77;20.63;;;7.40;99.90;;;;;;5093863;28;20322;-76
2023/12/09 05:16:32;;;;;;;49.77;21.03;;;7.40;99.90;;;;;;5094071;28;20318;-76
2023/12/09 05:18:58;;;;;;;50.20;20.30;;;7.40;99.90;;;;;;5092475;28;20048;-76
2023/12/09 05:21:24;;;;;;;53.70;20.80;;;7.30;99.90;;;;;;5094096;28;20813;-77
2023/12/09 05:23:50;;;;;;;51.20;21.00;;;7.40;99.90;;;;;;5093641;28;20040;-77
2023/12/09 05:26:22;;;;;;;56.60;19.83;;;7.40;99.90;;;;;;5075905;28;20059;-76
2023/12/09 05:28:49;;;;;;;50.00;20.33;;;7.30;99.90;;;;;;5093726;28;20048;-77
2023/12/09 05:31:15;;;;;;;54.17;20.80;;;7.30;99.90;;;;;;5093620;28;20331;-77
2023/12/09 05:33:40;;;;;;;56.53;20.20;;;7.30;99.90;;;;;;5094089;28;20274;-76
2023/12/09 05:36:07;;;;;;;47.93;19.70;;;7.40;99.90;;;;;;5093505;28;20553;-76
2023/12/09 05:38:32;;;;;;;55.47;19.97;;;7.40;99.90;;;;;;5093594;28;20082;-76
2023/12/09 05:40:58;;;;;;;57.23;21.77;;;7.30;99.90;;;;;;5092708;28;20278;-76
2023/12/09 05:43:24;;;;;;;67.93;22.43;;;7.40;99.90;;;;;;5092046;28;20402;-76
2023/12/09 05:45:49;;;;;;;45.97;20.33;;;7.30;99.90;;;;;;5093614;28;20040;-76
2023/12/09 05:48:15;;;;;;;50.50;21.77;;;7.30;99.90;;;;;;5091190;28;20052;-76
2023/12/09 05:50:41;;;;;;;46.37;19.13;;;7.30;99.90;;;;;;5092528;28;20064;-76
2023/12/09 05:53:07;;;;;;;47.43;19.27;;;7.30;99.90;;;;;;5093258;28;20464;-76
2023/12/09 05:55:33;;;;;;;46.40;19.77;;;7.30;99.90;;;;;;5093425;28;20503;-76
2023/12/09 05:57:58;;;;;;;60.43;20.77;;;7.30;99.90;;;;;;5092264;28;20290;-76
2023/12/09 06:00:24;;;;;;;45.90;20.60;;;7.30;99.90;;;;;;5093173;28;20043;-76
2023/12/09 06:02:50;;;;;;;56.83;21.67;;;7.30;99.90;;;;;;5093433;28;20452;-76
2023/12/09 06:05:15;;;;;;;56.87;19.80;;;7.30;99.90;;;;;;5092268;28;20484;-76
2023/12/09 06:07:41;;;;;;;47.70;19.20;;;7.20;99.90;;;;;;5093361;28;20048;-76
2023/12/09 06:10:07;;;;;;;44.63;19.33;;;7.30;99.90;;;;;;5092611;28;20044;-76
2023/12/09 06:12:33;;;;;;;47.27;18.87;;;7.20;99.90;;;;;;5093228;28;20036;-76
2023/12/09 06:14:59;;;;;;;45.93;19.20;;;7.20;99.90;;;;;;5093076;28;20280;-76
2023/12/09 06:17:24;;;;;;;50.60;18.60;;;7.20;99.90;;;;;;5093327;28;20492;-76
2023/12/09 06:19:50;;;;;;;48.67;18.63;;;7.20;99.90;;;;;;5092305;28;20105;-76
2023/12/09 06:22:16;;;;;;;41.93;18.30;;;7.20;99.90;;;;;;5093027;28;20082;-76
2023/12/09 06:24:44;;;;;;;47.70;18.83;;;7.20;99.90;;;;;;5092448;28;20041;-76
2023/12/09 06:27:10;;;;;;;45.57;17.37;;;7.20;99.90;;;;;;5091953;28;20365;-76
2023/12/09 06:29:37;;;;;;;47.80;18.17;;;7.20;99.90;;;;;;5093127;28;20300;-76
2023/12/09 06:32:03;;;;;;;49.57;19.17;;;7.10;99.90;;;;;;5092879;28;20289;-76
2023/12/09 06:34:29;;;;;;;57.07;19.70;;;7.20;99.90;;;;;;5092960;28;20358;-76
2023/12/09 06:36:55;;;;;;;49.30;18.10;;;7.10;99.90;;;;;;5093059;28;20377;-76
2023/12/09 06:39:20;;;;;;;50.93;17.17;;;7.20;99.90;;;;;;5092994;28;20472;-77
2023/12/09 06:41:47;;;;;;;55.40;17.37;;;7.20;99.90;;;;;;5093008;28;20048;-76
2023/12/09 06:44:12;;;;;;;50.03;18.00;;;7.20;99.90;;;;;;5092307;28;20118;-77
2023/12/09 06:46:38;;;;;;;48.03;16.73;;;7.10;99.90;;;;;;5092984;28;20277;-76
2023/12/09 06:49:05;;;;;;;43.57;16.30;;;7.10;99.90;;;;;;5092507;28;20040;-76
2023/12/09 06:51:31;;;;;;;50.87;17.60;;;7.10;99.90;;;;;;5092710;28;20055;-76
2023/12/09 06:53:56;;;;;;;47.33;16.60;;;7.20;99.90;;;;;;5096782;28;20730;-76
2023/12/09 06:56:22;;;;;;;42.07;16.60;;;7.20;99.90;;;;;;5096193;28;20050;-76
2023/12/09 06:58:49;;;;;;;45.97;15.77;;;7.20;99.90;;;;;;5096741;28;20047;-76
2023/12/09 07:01:25;;;;;;;41.47;16.77;;;7.10;99.90;;;;;;5095493;28;20297;-76
2023/12/09 07:03:51;;;;;;;44.20;15.57;;;7.10;99.90;;;;;;5096501;28;20385;-76
2023/12/09 07:06:21;;;;;;;46.67;15.80;;;7.10;99.90;;;;;;5096350;28;20362;-76
2023/12/09 07:08:47;;;;;;;36.17;15.40;;;7.10;99.90;;;;;;5096464;28;20048;-76
2023/12/09 07:11:13;;;;;;;51.50;16.20;;;7.10;99.90;;;;;;5095253;28;20289;-76
2023/12/09 07:13:39;;;;;;;49.83;16.83;;;7.10;99.90;;;;;;5096447;28;20044;-77
2023/12/09 07:16:09;;;;;;;56.07;16.70;;;7.10;99.90;;;;;;5096186;28;20743;-77
2023/12/09 07:18:37;;;;;;;46.80;15.23;;;7.10;99.90;;;;;;5096564;28;20537;-76
2023/12/09 07:21:02;;;;;;;43.87;15.53;;;7.10;99.90;;;;;;5096285;28;20282;-76
2023/12/09 07:23:28;;;;;;;38.87;16.57;;;7.10;99.90;;;;;;5095448;28;20317;-76
2023/12/09 07:25:55;;;;;;;44.73;15.63;;;7.10;99.90;;;;;;5096211;28;20044;-76
2023/12/09 07:28:21;;;;;;;54.17;15.87;;;7.10;99.90;;;;;;5094742;28;20056;-76
2023/12/09 07:30:46;;;;;;;51.43;16.30;;;7.10;99.90;;;;;;5095804;28;20339;-76
2023/12/09 07:33:12;;;;;;;54.17;16.87;;;7.10;99.90;;;;;;5094900;28;20044;-76
2023/12/09 07:35:39;;;;;;;39.40;15.40;;;7.10;99.90;;;;;;5096022;28;20357;-76
2023/12/09 07:38:05;;;;;;;43.80;15.17;;;7.10;99.90;;;;;;5095874;28;20048;-77
2023/12/09 07:40:31;;;;;;;49.53;15.17;;;7.10;99.90;;;;;;5095917;28;20283;-76
2023/12/09 07:42:56;;;;;;;42.90;15.90;;;7.10;99.90;;;;;;5095721;28;20055;-76
2023/12/09 07:45:22;;;;;;;44.17;14.30;;;7.10;99.90;;;;;;5095611;28;20090;-76
2023/12/09 07:47:48;;;;;;;43.77;13.50;;;7.10;99.90;;;;;;5095634;28;20079;-76
2023/12/09 07:50:13;;;;;;;45.53;13.23;;;7.10;99.90;;;;;;5095612;28;20040;-76
2023/12/09 07:52:39;;;;;;;42.20;13.50;;;7.10;99.90;;;;;;5095712;28;20080;-76
2023/12/09 07:55:07;;;;;;;52.30;13.77;;;7.10;99.90;;;;;;5095684;28;20070;-76
2023/12/09 07:57:32;;;;;;;49.40;13.93;;;7.20;99.90;;;;;;5095237;28;20836;-76
2023/12/09 07:59:58;;;;;;;42.90;12.87;;;7.10;99.90;;;;;;5095483;28;20424;-76
2023/12/09 08:02:24;;;;;;;47.67;12.67;;;7.20;99.90;;;;;;5095194;28;20380;-77
2023/12/09 08:04:49;;;;;;;41.70;11.53;;;7.20;99.90;;;;;;5093356;28;20076;-76
2023/12/09 08:07:15;;;;;;;44.63;11.77;;;7.20;99.90;;;;;;5095128;28;20044;-77
2023/12/09 08:09:41;;;;;;;40.33;11.47;;;7.20;99.90;;;;;;5095352;28;20617;-76
2023/12/09 08:12:07;;;;;;;48.33;12.13;;;7.20;99.90;;;;;;5095265;28;20430;-76
2023/12/09 08:14:33;;;;;;;39.73;10.80;;;7.20;99.90;;;;;;5094983;28;20051;-76
2023/12/09 08:16:58;;;;;;;35.60;9.93;;;7.20;99.90;;;;;;5094395;28;20282;-76
2023/12/09 08:19:24;;;;;;;47.60;10.90;;;7.20;99.90;;;;;;5094928;28;20331;-76
2023/12/09 08:21:50;;;;;;;41.87;10.97;;;7.30;99.90;;;;;;5095113;28;20044;-74
2023/12/09 08:24:16;;;;;;;35.60;10.17;;;7.30;99.90;;;;;;5094777;28;20070;-75
2023/12/09 08:26:42;;;;;;;39.60;10.13;;;7.20;99.90;;;;;;5094400;28;20417;-75
2023/12/09 08:29:11;;;;;;;39.67;11.03;;;7.20;99.90;;;;;;5095044;28;20636;-73
2023/12/09 08:31:37;;;;;;;36.77;9.70;;;7.30;99.90;;;;;;5094900;28;20052;-74
2023/12/09 08:34:04;;;;;;;37.63;9.80;;;7.30;99.90;;;;;;5093635;28;20357;-72
2023/12/09 08:36:30;;;;;;;37.20;10.37;;;7.30;99.90;;;;;;5094682;28;20278;-72
2023/12/09 08:38:56;;;;;;;41.43;10.70;;;7.30;99.90;;;;;;5094432;28;20762;-72
2023/12/09 08:41:21;;;;;;;31.77;10.03;;;7.30;99.90;;;;;;5094580;28;20370;-72
2023/12/09 08:43:51;;;;;;;38.00;11.13;;;7.30;99.90;;;;;;5093346;28;20062;-72
2023/12/09 08:46:16;;;;;;;42.37;11.23;;;7.30;99.90;;;;;;5094427;28;20117;-72
2023/12/09 08:48:42;;;;;;;33.83;10.43;;;7.30;99.90;;;;;;5094569;28;20750;-72
2023/12/09 08:51:08;;;;;;;33.33;9.80;;;7.30;99.90;;;;;;5094727;28;20044;-74
2023/12/09 08:53:34;;;;;;;48.70;11.80;;;7.30;99.90;;;;;;5094295;28;20476;-72
2023/12/09 08:56:00;;;;;;;33.40;10.37;;;7.30;99.90;;;;;;5093513;28;20044;-72
2023/12/09 08:58:25;;;;;;;40.03;11.27;;;7.30;99.90;;;;;;5094202;28;20289;-72
2023/12/09 09:00:51;;;;;;;34.77;10.73;;;7.40;99.90;;;;;;5094413;28;20572;-72
2023/12/09 09:03:17;;;;;;;39.73;11.47;;;7.30;99.90;;;;;;5093809;28;20073;-73
2023/12/09 09:05:42;;;;;;;34.77;11.10;;;7.30;99.90;;;;;;5093637;28;20052;-72
2023/12/09 09:08:08;;;;;;;34.13;10.77;;;7.40;99.90;;;;;;5094240;28;20140;-72
2023/12/09 09:10:34;;;;;;;35.53;9.60;;;7.40;99.90;;;;;;5094048;28;20056;-72
2023/12/09 09:12:59;;;;;;;35.43;9.33;;;7.40;99.90;;;;;;5094246;28;20492;-73
2023/12/09 09:15:25;;;;;;;36.33;9.40;;;7.40;99.90;;;;;;5093951;28;20036;-72
2023/12/09 09:17:51;;;;;;;36.73;9.03;;;7.40;99.90;;;;;;5094040;28;20121;-73
2023/12/09 09:20:17;;;;;;;32.77;8.60;;;7.40;99.90;;;;;;5092914;28;20052;-72
2023/12/09 09:22:42;;;;;;;34.23;8.57;;;7.40;99.90;;;;;;5093788;28;20460;-72
2023/12/09 09:25:09;;;;;;;35.57;8.93;;;7.40;99.90;;;;;;5093924;28;20388;-73
2023/12/09 09:27:35;;;;;;;34.70;9.17;;;7.40;99.90;;;;;;5092709;28;20362;-72
2023/12/09 09:30:00;;;;;;;30.20;8.27;;;7.40;99.90;;;;;;5093611;28;20282;-72
2023/12/09 09:32:27;;;;;;;28.77;8.73;;;7.40;99.90;;;;;;5092401;28;20131;-73
2023/12/09 09:34:52;;;;;;;32.63;9.33;;;7.40;99.90;;;;;;5093746;28;20044;-73
2023/12/09 09:37:18;;;;;;;23.93;7.33;;;7.40;99.90;;;;;;5093670;28;20413;-72
2023/12/09 09:39:44;;;;;;;33.60;9.03;;;7.40;99.90;;;;;;5093468;28;20149;-72
2023/12/09 09:42:25;;;;;;;29.03;7.50;;;7.40;99.90;;;;;;5093643;28;20082;-73
2023/12/09 09:45:27;;;;;;;30.57;7.37;;;7.40;99.90;;;;;;5093950;28;20089;-72
2023/12/09 09:47:57;;;;;;;27.13;7.17;;;7.40;99.90;;;;;;5093600;28;20817;-73
2023/12/09 09:50:25;;;;;;;27.87;7.93;;;7.40;99.90;;;;;;5093480;28;20308;-73
2023/12/09 09:52:52;;;;;;;26.40;8.13;;;7.40;99.90;;;;;;5093786;28;20282;-74
2023/12/09 09:55:19;;;;;;;25.73;7.90;;;7.40;99.90;;;;;;5093643;28;20278;-74
2023/12/09 09:57:47;;;;;;;24.13;6.87;;;7.40;99.90;;;;;;5093278;28;20274;-73
2023/12/09 10:00:14;;;;;;;30.17;7.63;;;7.40;99.90;;;;;;5093448;28;20365;-73
2023/12/09 10:02:44;;;;;;;26.00;8.20;;;7.40;99.90;;;;;;5093162;28;20297;-74
2023/12/09 10:05:11;;;;;;;20.23;6.20;;;7.40;99.90;;;;;;5093255;28;20366;-73
2023/12/09 10:07:37;;;;;;;29.17;8.30;;;7.40;99.90;;;;;;5092272;28;20289;-74
2023/12/09 10:10:05;;;;;;;25.83;7.27;;;7.40;99.90;;;;;;5092852;28;20282;-72
2023/12/09 10:12:30;;;;;;;25.07;6.83;;;7.40;99.90;;;;;;5092678;28;20036;-73
2023/12/09 10:14:56;;;;;;;20.77;6.40;;;7.40;99.90;;;;;;5091718;28;20351;-74
2023/12/09 10:17:23;;;;;;;23.40;6.60;;;7.50;99.90;;;;;;5092795;28;20496;-74
2023/12/09 10:19:49;;;;;;;24.73;6.97;;;7.50;99.90;;;;;;5092828;28;20050;-75
2023/12/09 10:22:14;;;;;;;18.47;6.30;;;7.50;99.90;;;;;;5092684;28;20346;-75
2023/12/09 10:24:51;;;;;;;24.03;6.93;;;7.50;99.90;;;;;;5092537;28;20040;-74
2023/12/09 10:27:20;;;;;;;22.40;6.67;;;7.50;99.90;;;;;;5094911;28;20040;-72
2023/12/09 10:29:46;;;;;;;23.90;7.17;;;7.50;99.90;;;;;;5076876;28;20427;-73
2023/12/09 10:32:12;;;;;;;26.80;7.13;;;7.60;99.90;;;;;;5075809;28;20366;-74
2023/12/09 10:34:40;;;;;;;22.50;5.87;;;7.60;99.90;;;;;;5076750;28;20055;-75
2023/12/09 10:37:09;;;;;;;27.03;6.13;;;7.60;99.90;;;;;;5076954;28;20397;-74
2023/12/09 10:39:36;;;;;;;21.33;5.80;;;7.60;99.90;;;;;;5076702;28;20339;-79
2023/12/09 10:42:05;;;;;;;28.67;6.57;;;7.60;99.90;;;;;;5076755;28;20290;-78
2023/12/09 10:44:31;;;;;;;20.03;6.13;;;7.60;99.90;;;;;;5076818;28;20455;-73
2023/12/09 10:46:57;;;;;;;24.03;5.70;;;7.60;99.90;;;;;;5076738;28;20369;-68
2023/12/09 10:49:22;;;;;;;25.17;5.50;;;7.70;99.90;;;;;;5076421;28;20322;-73
2023/12/09 10:51:48;;;;;;;26.90;5.47;;;7.70;99.90;;;;;;5076376;28;20049;-73
2023/12/09 10:54:14;;;;;;;22.50;5.83;;;7.70;99.90;;;;;;5076558;28;20070;-74
2023/12/09 10:56:40;;;;;;;21.20;4.87;;;7.70;99.90;;;;;;5076308;28;20045;-75
2023/12/09 10:59:08;;;;;;;24.17;5.83;;;7.70;99.90;;;;;;5076483;28;20310;-73
2023/12/09 11:01:34;;;;;;;20.67;5.67;;;7.70;99.90;;;;;;5076226;28;20283;-73
2023/12/09 11:04:00;;;;;;;18.73;6.07;;;7.70;99.90;;;;;;5076546;28;20298;-74
2023/12/09 11:06:31;;;;;;;19.20;4.50;;;7.70;99.90;;;;;;5075384;28;20298;-72
2023/12/09 11:08:57;;;;;;;22.40;4.97;;;7.70;99.90;;;;;;5076349;28;20321;-73
2023/12/09 11:11:23;;;;;;;18.80;4.30;;;7.70;99.90;;;;;;5076267;28;20318;-73
2023/12/09 11:13:49;;;;;;;22.23;5.70;;;7.70;99.90;;;;;;5075066;28;20526;-73
2023/12/09 11:16:20;;;;;;;23.43;5.77;;;7.70;99.90;;;;;;5076293;28;20377;-74
2023/12/09 11:18:50;;;;;;;24.10;5.30;;;7.70;99.90;;;;;;5076008;28;20048;-73
2023/12/09 11:21:17;;;;;;;18.90;4.37;;;7.70;99.90;;;;;;5076087;28;20326;-75
2023/12/09 11:23:53;;;;;;;21.30;5.40;;;7.80;99.90;;;;;;5075704;28;20801;-76
2023/12/09 11:26:29;;;;;;;21.67;5.07;;;7.80;99.90;;;;;;5076324;28;20337;-75
2023/12/09 11:29:05;;;;;;;19.77;4.03;;;7.80;99.90;;;;;;5075740;28;20279;-74
2023/12/09 11:31:48;;;;;;;14.20;4.10;;;7.80;99.90;;;;;;5076091;28;20658;-74
2023/12/09 11:34:19;;;;;;;22.23;4.80;;;7.80;99.90;;;;;;5075854;28;20278;-74
2023/12/09 11:36:53;;;;;;;21.57;4.13;;;7.80;99.90;;;;;;5075863;28;20274;-73
2023/12/09 11:39:20;;;;;;;19.00;4.85;;;7.80;99.90;;;;;;5074631;28;20279;-72
2023/12/09 11:41:47;;;;;;;22.80;4.07;;;7.80;99.90;;;;;;5076871;28;20044;-74
2023/12/09 11:44:14;;;;;;;17.57;4.23;;;7.80;99.90;;;;;;5075759;28;20400;-73
2023/12/09 11:46:40;;;;;;;17.50;4.10;;;7.80;99.90;;;;;;5075540;28;20275;-73
2023/12/09 11:49:07;;;;;;;19.37;5.40;;;7.80;99.90;;;;;;5075657;28;20275;-72
2023/12/09 11:51:34;;;;;;;12.23;3.83;;;7.80;99.90;;;;;;5075542;28;20389;-74
2023/12/09 11:54:08;;;;;;;13.37;3.77;;;7.80;99.90;;;;;;5075450;28;20279;-75
2023/12/09 11:56:35;;;;;;;22.17;3.80;;;7.70;99.90;;;;;;5075168;28;20762;-74
2023/12/09 11:59:00;;;;;;;18.10;3.70;;;7.70;99.90;;;;;;5074359;28;20539;-74
2023/12/09 12:01:31;;;;;;;17.00;3.80;;;7.80;99.90;;;;;;5075427;28;20314;-73
2023/12/09 12:03:58;;;;;;;17.83;4.50;;;7.80;99.90;;;;;;5075051;28;20074;-73
2023/12/09 12:06:24;;;;;;;13.17;4.07;;;7.80;99.90;;;;;;5075939;28;20289;-74
2023/12/09 12:08:52;;;;;;;16.90;3.73;;;7.70;99.90;;;;;;5094479;28;20357;-74
2023/12/09 12:11:23;;;;;;;16.57;3.60;;;7.70;99.90;;;;;;5094903;28;20145;-76
2023/12/09 12:13:49;;;;;;;12.00;3.17;;;7.70;99.90;;;;;;5094837;28;20278;-76
2023/12/09 12:16:16;;;;;;;15.77;3.93;;;7.80;99.90;;;;;;5095444;28;20286;-84
2023/12/09 12:18:41;;;;;;;15.03;3.87;;;7.80;99.90;;;;;;5095074;28;20811;-75
2023/12/09 12:21:08;;;;;;;15.20;3.43;;;7.80;99.90;;;;;;5095153;28;20307;-75
2023/12/09 12:23:35;;;;;;;13.90;3.43;;;7.70;99.90;;;;;;5095247;28;20121;-75
2023/12/09 12:26:01;;;;;;;16.03;3.60;;;7.80;99.90;;;;;;5093722;28;20333;-74
2023/12/09 12:28:27;;;;;;;14.33;3.80;;;7.80;99.90;;;;;;5094968;28;20282;-74
2023/12/09 12:30:59;;;;;;;15.57;4.07;;;7.80;99.90;;;;;;5094789;28;20274;-71
2023/12/09 12:33:26;;;;;;;16.90;3.57;;;7.70;99.90;;;;;;5095182;28;20043;-73
2023/12/09 12:35:55;;;;;;;12.33;3.70;;;7.80;99.90;;;;;;5093520;28;20373;-71